createdAt,value
2018-05-31T00:00:13.866Z,62.70
2018-05-31T00:02:44.286Z,61.20
2018-05-31T00:05:16.196Z,61.10
2018-05-31T00:07:46.996Z,61.00
2018-05-31T00:10:16.755Z,60.70
2018-05-31T00:12:46.766Z,59.50
2018-05-31T00:15:16.015Z,60.10
2018-05-31T00:17:48.596Z,60.20
2018-05-31T00:20:18.867Z,58.30
2018-05-31T00:22:49.656Z,57.50
2018-05-31T00:25:20.697Z,57.50
2018-05-31T00:27:52.266Z,58.40
2018-05-31T00:30:21.236Z,58.40
2018-05-31T00:32:51.775Z,58.80
2018-05-31T00:35:23.696Z,58.80
2018-05-31T00:37:53.625Z,59.00
2018-05-31T00:40:23.105Z,59.50
2018-05-31T00:42:53.626Z,60.00
2018-05-31T00:45:23.136Z,60.20
2018-05-31T00:47:52.895Z,60.10
2018-05-31T00:50:23.175Z,60.60
2018-05-31T00:52:56.442Z,60.70
2018-05-31T00:55:38.056Z,60.70
2018-05-31T00:58:07.555Z,60.70
2018-05-31T01:00:37.578Z,60.60
2018-05-31T01:03:09.126Z,60.30
2018-05-31T01:05:39.657Z,60.40
2018-05-31T01:08:09.176Z,60.60
2018-05-31T01:10:38.666Z,61.20
2018-05-31T01:13:08.430Z,61.30
2018-05-31T01:15:38.697Z,62.00
2018-05-31T01:18:08.205Z,62.00
2018-05-31T01:20:37.956Z,62.50
2018-05-31T01:23:08.996Z,64.50
2018-05-31T01:25:38.756Z,64.50
2018-05-31T01:28:08.566Z,64.90
2018-05-31T01:30:38.556Z,64.00
2018-05-31T01:33:10.325Z,63.50
2018-05-31T01:35:40.116Z,63.50
2018-05-31T01:38:21.656Z,63.10
2018-05-31T01:40:52.066Z,62.90
2018-05-31T01:43:21.947Z,62.60
2018-05-31T01:45:51.457Z,64.10
2018-05-31T01:48:21.727Z,65.10
2018-05-31T01:50:51.525Z,64.60
2018-05-31T01:53:22.785Z,65.30
2018-05-31T01:55:53.316Z,66.70
2018-05-31T01:58:23.615Z,66.70
2018-05-31T02:00:56.416Z,67.00
2018-05-31T02:03:29.256Z,67.00
2018-05-31T02:05:59.266Z,67.00
2018-05-31T02:08:29.547Z,68.70
2018-05-31T02:11:01.867Z,68.90
2018-05-31T02:13:31.368Z,69.30
2018-05-31T02:16:01.127Z,69.50
2018-05-31T02:18:31.405Z,69.40
2018-05-31T02:21:01.677Z,69.50
2018-05-31T02:23:31.426Z,70.00
2018-05-31T02:26:01.458Z,70.90
2018-05-31T02:28:30.956Z,70.90
2018-05-31T02:31:00.730Z,71.20
2018-05-31T02:33:30.995Z,71.10
2018-05-31T02:36:03.456Z,71.10
2018-05-31T02:38:35.125Z,71.10
2018-05-31T02:41:05.146Z,71.10
2018-05-31T02:43:35.160Z,71.00
2018-05-31T02:46:05.426Z,71.00
2018-05-31T02:48:35.347Z,71.00
2018-05-31T02:51:05.210Z,71.00
2018-05-31T02:53:37.535Z,71.00
2018-05-31T02:56:08.696Z,71.20
2018-05-31T02:58:40.130Z,70.60
2018-05-31T03:01:10.917Z,70.40
2018-05-31T03:03:41.139Z,71.00
2018-05-31T03:06:11.316Z,69.90
2018-05-31T03:08:41.216Z,69.50
2018-05-31T03:11:10.726Z,69.20
2018-05-31T03:13:40.776Z,69.50
2018-05-31T03:16:10.002Z,69.30
2018-05-31T03:18:40.236Z,69.30
2018-05-31T03:21:09.766Z,69.20
2018-05-31T03:23:39.536Z,69.10
2018-05-31T03:26:09.297Z,68.70
2018-05-31T03:28:40.717Z,69.00
2018-05-31T03:31:10.610Z,68.90
2018-05-31T03:33:40.996Z,68.80
2018-05-31T03:36:10.636Z,69.10
2018-05-31T03:38:44.427Z,70.00
2018-05-31T03:41:14.297Z,70.00
2018-05-31T03:43:44.046Z,70.10
2018-05-31T03:46:13.517Z,70.30
2018-05-31T03:48:42.776Z,70.40
2018-05-31T03:51:12.766Z,70.00
2018-05-31T03:53:43.145Z,70.30
2018-05-31T03:56:15.898Z,70.20
2018-05-31T03:58:46.676Z,70.40
2018-05-31T04:01:17.218Z,70.90
2018-05-31T04:03:47.476Z,70.80
2018-05-31T04:06:21.206Z,70.80
2018-05-31T04:08:51.386Z,70.80
2018-05-31T04:11:21.626Z,70.80
2018-05-31T04:13:51.897Z,70.60
2018-05-31T04:16:21.926Z,70.60
2018-05-31T04:18:51.417Z,70.10
2018-05-31T04:21:25.095Z,69.10
2018-05-31T04:23:54.318Z,69.10
2018-05-31T04:26:23.816Z,68.30
2018-05-31T04:28:57.825Z,67.20
2018-05-31T04:31:26.896Z,66.80
2018-05-31T04:33:57.407Z,67.10
2018-05-31T04:36:27.176Z,67.10
2018-05-31T04:38:59.426Z,66.20
2018-05-31T04:41:30.797Z,66.10
2018-05-31T04:44:00.546Z,66.10
2018-05-31T04:46:30.837Z,66.70
2018-05-31T04:49:01.370Z,68.60
2018-05-31T04:51:31.136Z,69.00
2018-05-31T04:54:00.406Z,69.50
2018-05-31T04:56:30.137Z,69.70
2018-05-31T04:59:00.146Z,69.60
2018-05-31T05:01:34.375Z,69.60
2018-05-31T05:04:04.276Z,69.50
2018-05-31T05:06:34.816Z,69.50
2018-05-31T05:09:06.036Z,69.50
2018-05-31T05:11:35.616Z,69.60
2018-05-31T05:14:05.627Z,69.60
2018-05-31T05:16:36.416Z,69.30
2018-05-31T05:19:07.196Z,69.20
2018-05-31T05:21:37.216Z,69.30
2018-05-31T05:24:07.266Z,69.10
2018-05-31T05:26:36.736Z,69.00
2018-05-31T05:29:06.511Z,68.90
2018-05-31T05:31:36.006Z,68.50
2018-05-31T05:34:06.166Z,67.80
2018-05-31T05:36:35.528Z,67.60
2018-05-31T05:39:06.316Z,67.60
2018-05-31T05:41:36.076Z,67.60
2018-05-31T05:44:06.049Z,67.30
2018-05-31T05:46:35.856Z,67.50
2018-05-31T05:49:05.617Z,67.40
2018-05-31T05:51:35.406Z,66.40
2018-05-31T05:54:05.648Z,65.60
2018-05-31T05:56:35.405Z,65.80
2018-05-31T05:59:10.796Z,67.00
2018-05-31T06:01:41.896Z,67.00
2018-05-31T06:04:11.887Z,66.90
2018-05-31T06:06:41.666Z,66.60
2018-05-31T06:09:11.387Z,66.00
2018-05-31T06:11:41.916Z,66.20
2018-05-31T06:14:11.936Z,66.10
2018-05-31T06:16:41.949Z,66.30
2018-05-31T06:19:12.989Z,65.70
2018-05-31T06:21:42.496Z,65.50
2018-05-31T06:24:14.426Z,65.40
2018-05-31T06:26:44.606Z,65.40
2018-05-31T06:29:17.157Z,64.60
2018-05-31T06:31:47.040Z,64.30
2018-05-31T06:34:18.475Z,64.00
2018-05-31T06:36:50.217Z,64.10
2018-05-31T06:39:19.516Z,63.50
2018-05-31T06:41:50.426Z,64.40
2018-05-31T06:44:21.858Z,63.70
2018-05-31T06:46:53.899Z,63.30
2018-05-31T06:49:23.166Z,63.40
2018-05-31T06:51:54.336Z,63.70
2018-05-31T06:54:24.746Z,63.50
2018-05-31T06:56:54.506Z,63.40
2018-05-31T06:59:26.576Z,62.60
2018-05-31T07:01:56.326Z,62.80
2018-05-31T07:04:28.066Z,63.70
2018-05-31T07:07:02.376Z,63.70
2018-05-31T07:09:32.028Z,63.20
2018-05-31T07:12:03.576Z,62.70
2018-05-31T07:14:33.576Z,62.70
2018-05-31T07:17:03.866Z,62.20
2018-05-31T07:19:35.486Z,62.10
2018-05-31T07:22:05.687Z,62.40
2018-05-31T07:24:37.006Z,61.60
2018-05-31T07:27:07.009Z,61.50
2018-05-31T07:29:37.538Z,61.40
2018-05-31T07:32:08.067Z,61.50
2018-05-31T07:34:40.401Z,61.40
2018-05-31T07:37:10.656Z,61.20
2018-05-31T07:39:40.697Z,61.30
2018-05-31T07:42:10.686Z,61.70
2018-05-31T07:44:42.206Z,61.90
2018-05-31T07:47:11.996Z,63.10
2018-05-31T07:49:42.836Z,63.00
2018-05-31T07:52:13.525Z,63.70
2018-05-31T07:54:44.647Z,62.70
2018-05-31T07:57:13.865Z,66.50
2018-05-31T07:59:44.385Z,63.60
2018-05-31T08:02:13.896Z,63.40
2018-05-31T08:04:43.925Z,64.20
2018-05-31T08:07:18.265Z,65.00
2018-05-31T08:09:49.435Z,64.90
2018-05-31T08:12:18.582Z,65.30
2018-05-31T08:14:48.931Z,64.70
2018-05-31T08:17:20.146Z,65.40
2018-05-31T08:19:51.477Z,64.80
2018-05-31T08:22:21.465Z,64.50
2018-05-31T08:24:53.786Z,65.50
2018-05-31T08:27:23.538Z,65.50
2018-05-31T08:29:53.557Z,64.80
2018-05-31T08:32:24.080Z,64.70
2018-05-31T08:34:53.336Z,64.20
2018-05-31T08:37:23.106Z,64.20
2018-05-31T08:39:53.706Z,64.50
2018-05-31T08:42:23.896Z,64.50
2018-05-31T08:44:52.658Z,63.30
2018-05-31T08:47:22.689Z,63.00
2018-05-31T08:49:52.207Z,63.10
2018-05-31T08:52:22.466Z,63.10
2018-05-31T08:54:51.686Z,63.10
2018-05-31T08:57:21.467Z,62.80
2018-05-31T08:59:51.216Z,62.30
2018-05-31T09:02:26.257Z,61.70
2018-05-31T09:04:55.596Z,61.70
2018-05-31T09:07:27.606Z,61.90
2018-05-31T09:09:57.166Z,61.70
2018-05-31T09:12:28.456Z,61.70
2018-05-31T09:14:57.702Z,62.10
2018-05-31T09:17:28.236Z,61.40
2018-05-31T09:19:58.286Z,60.80
2018-05-31T09:22:39.392Z,61.00
2018-05-31T09:25:12.116Z,59.50
2018-05-31T09:27:43.128Z,59.50
2018-05-31T09:30:16.486Z,59.80
2018-05-31T09:32:54.459Z,59.80
2018-05-31T09:35:24.216Z,59.80
2018-05-31T09:37:54.218Z,59.90
2018-05-31T09:40:24.267Z,59.50
2018-05-31T09:43:02.382Z,60.00
2018-05-31T09:45:32.210Z,59.60
2018-05-31T09:48:05.655Z,59.90
2018-05-31T09:50:40.960Z,59.90
2018-05-31T09:53:16.016Z,60.50
2018-05-31T09:55:57.812Z,58.80
2018-05-31T09:58:30.206Z,57.90
2018-05-31T10:01:03.998Z,57.90
2018-05-31T10:03:48.636Z,58.40
2018-05-31T10:06:29.726Z,57.50
2018-05-31T10:09:03.788Z,57.90
2018-05-31T10:11:34.165Z,58.10
2018-05-31T10:14:03.715Z,56.90
2018-05-31T10:16:34.380Z,56.60
2018-05-31T10:19:04.146Z,57.70
2018-05-31T10:21:34.926Z,57.30
2018-05-31T10:24:04.978Z,57.30
2018-05-31T10:26:34.438Z,58.30
2018-05-31T10:29:03.168Z,57.50
2018-05-31T10:31:32.932Z,57.50
2018-05-31T10:34:02.176Z,56.70
2018-05-31T10:36:35.116Z,55.90
2018-05-31T10:39:09.664Z,55.00
2018-05-31T10:41:39.913Z,56.00
2018-05-31T10:44:08.955Z,56.50
2018-05-31T10:46:38.457Z,56.80
2018-05-31T10:49:07.446Z,57.70
2018-05-31T10:51:37.796Z,57.80
2018-05-31T10:54:07.637Z,59.00
2018-05-31T10:56:37.787Z,58.10
2018-05-31T10:59:06.701Z,58.50
2018-05-31T11:01:38.046Z,57.90
2018-05-31T11:04:08.027Z,58.20
2018-05-31T11:06:39.326Z,58.50
2018-05-31T11:09:10.117Z,58.00
2018-05-31T11:11:39.906Z,55.90
2018-05-31T11:14:09.886Z,55.80
2018-05-31T11:16:38.891Z,55.20
2018-05-31T11:19:09.169Z,55.80
2018-05-31T11:21:39.449Z,55.80
2018-05-31T11:24:09.696Z,54.60
2018-05-31T11:26:39.757Z,54.60
2018-05-31T11:29:09.540Z,53.20
2018-05-31T11:31:39.237Z,52.60
2018-05-31T11:34:08.688Z,53.00
2018-05-31T11:36:38.797Z,51.30
2018-05-31T11:39:08.527Z,51.90
2018-05-31T11:41:38.334Z,51.30
2018-05-31T11:44:11.965Z,50.70
2018-05-31T11:46:41.125Z,50.30
2018-05-31T11:49:10.646Z,50.20
2018-05-31T11:51:40.407Z,50.20
2018-05-31T11:54:10.616Z,50.40
2018-05-31T11:56:40.947Z,50.20
2018-05-31T11:59:10.466Z,50.40
2018-05-31T12:01:40.739Z,50.60
2018-05-31T12:04:10.528Z,50.20
2018-05-31T12:06:41.077Z,50.00
2018-05-31T12:09:11.026Z,49.80
2018-05-31T12:11:41.567Z,49.60
2018-05-31T12:14:11.317Z,49.50
2018-05-31T12:16:41.297Z,50.40
2018-05-31T12:19:11.355Z,49.80
2018-05-31T12:21:41.387Z,50.00
2018-05-31T12:24:12.966Z,50.20
2018-05-31T12:26:44.478Z,50.20
2018-05-31T12:29:15.226Z,50.40
2018-05-31T12:31:45.857Z,50.00
2018-05-31T12:34:16.326Z,49.00
2018-05-31T12:36:46.856Z,49.20
2018-05-31T12:39:16.616Z,49.60
2018-05-31T12:41:47.159Z,49.00
2018-05-31T12:44:18.247Z,49.30
2018-05-31T12:46:48.966Z,47.90
2018-05-31T12:49:19.246Z,48.10
2018-05-31T12:51:49.868Z,48.80
2018-05-31T12:54:19.786Z,49.80
2018-05-31T12:56:50.641Z,50.20
2018-05-31T12:59:19.905Z,50.10
2018-05-31T13:01:51.416Z,50.30
2018-05-31T13:04:21.665Z,51.00
2018-05-31T13:06:51.926Z,50.20
2018-05-31T13:09:24.514Z,50.10
2018-05-31T13:11:55.557Z,49.10
2018-05-31T13:14:25.055Z,49.00
2018-05-31T13:16:55.955Z,49.40
2018-05-31T13:19:27.126Z,50.20
2018-05-31T13:21:57.146Z,49.80
2018-05-31T13:24:26.916Z,49.70
2018-05-31T13:26:57.726Z,49.30
2018-05-31T13:29:27.218Z,49.10
2018-05-31T13:31:57.256Z,48.60
2018-05-31T13:34:26.994Z,48.40
2018-05-31T13:36:56.711Z,48.70
2018-05-31T13:39:25.967Z,48.30
2018-05-31T13:41:56.529Z,48.40
2018-05-31T13:44:26.796Z,48.60
2018-05-31T13:46:57.096Z,48.50
2018-05-31T13:49:26.726Z,48.40
2018-05-31T13:51:56.855Z,48.70
2018-05-31T13:54:26.610Z,48.60
2018-05-31T13:56:57.265Z,47.70
2018-05-31T13:59:27.227Z,47.70
2018-05-31T14:01:56.966Z,48.20
2018-05-31T14:04:26.196Z,47.50
2018-05-31T14:06:56.777Z,47.10
2018-05-31T14:09:25.942Z,46.60
2018-05-31T14:11:55.697Z,46.40
2018-05-31T14:14:25.107Z,46.20
2018-05-31T14:16:55.546Z,45.90
2018-05-31T14:19:27.747Z,46.80
2018-05-31T14:21:58.601Z,47.20
2018-05-31T14:24:29.726Z,47.40
2018-05-31T14:27:00.157Z,46.80
2018-05-31T14:29:29.673Z,46.90
2018-05-31T14:32:00.462Z,48.00
2018-05-31T14:34:30.206Z,48.10
2018-05-31T14:37:00.095Z,48.50
2018-05-31T14:39:29.756Z,47.60
2018-05-31T14:42:01.226Z,47.70
2018-05-31T14:44:32.077Z,48.10
2018-05-31T14:47:03.606Z,47.70
2018-05-31T14:49:36.075Z,47.70
2018-05-31T14:52:05.966Z,48.20
2018-05-31T14:54:40.707Z,47.30
2018-05-31T14:57:11.378Z,47.30
2018-05-31T14:59:41.139Z,47.10
2018-05-31T15:02:11.149Z,47.70
2018-05-31T15:04:41.735Z,47.80
2018-05-31T15:07:11.449Z,49.20
2018-05-31T15:09:42.227Z,48.80
2018-05-31T15:12:12.537Z,49.20
2018-05-31T15:14:42.006Z,48.30
2018-05-31T15:17:15.147Z,46.40
2018-05-31T15:19:44.866Z,46.30
2018-05-31T15:22:19.879Z,45.70
2018-05-31T15:24:49.246Z,47.30
2018-05-31T15:27:18.786Z,46.70
2018-05-31T15:29:48.766Z,47.00
2018-05-31T15:32:20.577Z,48.10
2018-05-31T15:34:50.847Z,48.10
2018-05-31T15:37:20.636Z,48.50
2018-05-31T15:39:51.906Z,49.40
2018-05-31T15:42:23.716Z,49.70
2018-05-31T15:44:53.737Z,49.60
2018-05-31T15:47:25.035Z,49.30
2018-05-31T15:49:54.537Z,49.30
2018-05-31T15:52:24.807Z,49.00
2018-05-31T15:54:55.845Z,49.10
2018-05-31T15:57:27.916Z,48.80
2018-05-31T15:59:58.575Z,48.70
2018-05-31T16:02:29.737Z,48.90
2018-05-31T16:05:02.067Z,48.90
2018-05-31T16:07:32.587Z,48.80
2018-05-31T16:10:02.347Z,48.80
2018-05-31T16:12:32.266Z,49.30
2018-05-31T16:15:02.089Z,50.40
2018-05-31T16:17:32.655Z,50.60
2018-05-31T16:20:05.496Z,49.40
2018-05-31T16:22:36.076Z,49.10
2018-05-31T16:25:06.227Z,49.10
2018-05-31T16:27:37.096Z,49.40
2018-05-31T16:30:07.999Z,49.50
2018-05-31T16:32:38.654Z,49.00
2018-05-31T16:35:09.179Z,49.70
2018-05-31T16:37:40.217Z,49.60
2018-05-31T16:40:09.436Z,49.40
2018-05-31T16:42:41.798Z,49.50
2018-05-31T16:45:12.367Z,49.80
2018-05-31T16:47:44.386Z,49.80
2018-05-31T16:50:14.681Z,49.20
2018-05-31T16:52:46.357Z,49.20
2018-05-31T16:55:16.216Z,49.10
2018-05-31T16:57:48.036Z,49.70
2018-05-31T17:00:18.816Z,49.70
2018-05-31T17:02:49.926Z,52.10
2018-05-31T17:05:19.120Z,52.80
2018-05-31T17:07:49.805Z,53.70
2018-05-31T17:10:19.406Z,53.60
2018-05-31T17:12:50.966Z,53.60
2018-05-31T17:15:21.276Z,53.50
2018-05-31T17:17:52.016Z,52.90
2018-05-31T17:20:21.776Z,50.50
2018-05-31T17:22:52.907Z,49.50
2018-05-31T17:25:22.349Z,47.90
2018-05-31T17:27:52.087Z,47.90
2018-05-31T17:30:22.356Z,48.50
2018-05-31T17:32:51.846Z,48.60
2018-05-31T17:35:21.576Z,48.10
2018-05-31T17:37:55.416Z,48.00
2018-05-31T17:40:25.497Z,47.70
2018-05-31T17:42:55.039Z,48.10
2018-05-31T17:45:24.516Z,48.00
2018-05-31T17:47:56.476Z,48.30
2018-05-31T17:50:25.825Z,48.30
2018-05-31T17:53:00.074Z,48.40
2018-05-31T17:55:34.141Z,48.40
2018-05-31T17:58:05.381Z,48.10
2018-05-31T18:00:35.345Z,48.10
2018-05-31T18:03:06.276Z,48.00
2018-05-31T18:05:37.185Z,48.10
2018-05-31T18:08:07.976Z,48.40
2018-05-31T18:10:38.196Z,48.40
2018-05-31T18:13:08.016Z,48.50
2018-05-31T18:15:38.006Z,49.50
2018-05-31T18:18:08.198Z,50.70
2018-05-31T18:20:38.580Z,51.20
2018-05-31T18:23:08.845Z,51.70
2018-05-31T18:25:38.868Z,51.70
2018-05-31T18:28:08.625Z,51.60
2018-05-31T18:30:40.447Z,52.30
2018-05-31T18:33:10.965Z,52.20
2018-05-31T18:35:41.276Z,52.30
2018-05-31T18:38:11.007Z,52.50
2018-05-31T18:40:40.766Z,52.80
2018-05-31T18:43:10.509Z,52.80
2018-05-31T18:45:40.797Z,52.80
2018-05-31T18:48:10.586Z,52.70
2018-05-31T18:50:43.179Z,52.70
2018-05-31T18:53:14.797Z,53.00
2018-05-31T18:55:45.976Z,53.20
2018-05-31T18:58:15.125Z,53.50
2018-05-31T19:00:46.026Z,53.70
2018-05-31T19:03:16.276Z,54.00
2018-05-31T19:05:46.046Z,54.40
2018-05-31T19:08:15.805Z,54.30
2018-05-31T19:10:45.826Z,54.60
2018-05-31T19:13:20.276Z,54.70
2018-05-31T19:15:50.347Z,54.70
2018-05-31T19:18:25.920Z,55.00
2018-05-31T19:20:55.626Z,55.30
2018-05-31T19:23:26.666Z,55.40
2018-05-31T19:25:56.688Z,55.60
2018-05-31T19:28:26.585Z,56.10
2018-05-31T19:31:00.766Z,56.30
2018-05-31T19:33:31.216Z,56.20
2018-05-31T19:36:09.256Z,56.30
2018-05-31T19:38:38.796Z,56.30
2018-05-31T19:41:09.075Z,56.30
2018-05-31T19:43:44.766Z,56.20
2018-05-31T19:46:13.966Z,56.40
2018-05-31T19:48:44.626Z,56.40
2018-05-31T19:51:14.627Z,56.80
2018-05-31T19:53:45.156Z,56.30
2018-05-31T19:56:15.073Z,56.40
2018-05-31T19:58:50.456Z,56.80
2018-05-31T20:01:24.847Z,56.70
2018-05-31T20:03:54.327Z,56.90
2018-05-31T20:06:23.835Z,58.40
2018-05-31T20:08:53.158Z,58.80
2018-05-31T20:11:23.160Z,58.80
2018-05-31T20:13:52.876Z,59.70
2018-05-31T20:16:22.642Z,61.70
2018-05-31T20:18:53.163Z,63.20
2018-05-31T20:21:22.665Z,63.20
2018-05-31T20:23:53.736Z,62.70
2018-05-31T20:26:23.732Z,62.50
2018-05-31T20:28:54.986Z,62.50
2018-05-31T20:31:24.776Z,60.30
2018-05-31T20:33:55.558Z,59.20
2018-05-31T20:36:25.326Z,59.20
2018-05-31T20:38:56.876Z,59.90
2018-05-31T20:41:26.756Z,60.60
2018-05-31T20:43:57.667Z,61.10
2018-05-31T20:46:27.436Z,60.70
2018-05-31T20:48:58.507Z,60.10
2018-05-31T20:51:29.527Z,59.20
2018-05-31T20:54:03.138Z,58.80
2018-05-31T20:56:32.636Z,59.20
2018-05-31T20:59:04.947Z,60.60
2018-05-31T21:01:35.986Z,60.80
2018-05-31T21:04:11.066Z,61.00
2018-05-31T21:06:43.665Z,61.00
2018-05-31T21:09:15.765Z,60.70
2018-05-31T21:11:45.307Z,61.00
2018-05-31T21:14:16.056Z,61.40
